Terminal Aerodrome Forecast
Issued by NWS

Home | Current Version | Previous Version | Graphics & Text | Print | Product List | Glossary On
Versions: 1 2 3 4 5 6 7 8 9 10 11 12 13 14 15 16 17 18 19
000
FTUS43 KABR 021505 AAB
TAFMBG
TAF AMD
KMBG 021505Z 0215/0312 34014G20KT P6SM SKC
      TEMPO 0215/0217 35008KT
     FM030000 02008KT P6SM SKC=

USA.gov is the U.S. government's official web portal to all federal, state and local government web resources and services.